Time,TemperatureF,DewpointF,PressureIn,WindDirection,WindDirectionDegrees,WindSpeedMPH,WindSpeedGustMPH,Humidity,HourlyPrecipIn,Conditions,Clouds,dailyrainin,SolarRadiationWatts/m^2,SoftwareType,DateUTC
2013-03-08 00:01:00,34.0,34.0,-100.00,East,79,0.0,2.0,96,-99.99,,,0.00,0.000000,,2013-03-08 08:01:00,
2013-03-08 00:11:00,34.0,34.0,-100.00,East,79,0.0,2.0,96,-99.99,,,0.00,0.000000,,2013-03-08 08:11:00,
2013-03-08 00:41:00,35.0,34.0,-100.00,ENE,77,1.0,2.0,97,-99.99,,,0.00,0.000000,,2013-03-08 08:41:00,
2013-03-08 00:52:00,35.0,34.0,-100.00,ENE,77,1.0,2.0,97,-99.99,,,0.00,0.000000,,2013-03-08 08:52:00,
2013-03-08 01:02:00,35.0,34.0,-100.00,ENE,77,1.0,2.0,97,-99.99,,,0.00,0.000000,,2013-03-08 09:02:00,
2013-03-08 01:11:00,35.0,34.0,-100.00,ENE,77,1.0,2.0,97,-99.99,,,0.00,0.000000,,2013-03-08 09:11:00,
2013-03-08 01:42:00,37.0,36.0,-100.00,North,4,1.0,3.0,97,-99.99,,,0.00,0.000000,,2013-03-08 09:42:00,
2013-03-08 01:52:00,37.0,36.0,-100.00,North,4,1.0,3.0,97,-99.99,,,0.00,0.000000,,2013-03-08 09:52:00,
2013-03-08 02:01:00,37.0,36.0,-100.00,North,4,1.0,3.0,97,-99.99,,,0.00,0.000000,,2013-03-08 10:01:00,
2013-03-08 02:11:00,37.0,36.0,-100.00,North,4,1.0,3.0,97,-99.99,,,0.00,0.000000,,2013-03-08 10:11:00,
2013-03-08 02:41:00,34.0,33.0,-100.00,East,85,1.0,2.0,97,-99.99,,,0.00,0.000000,,2013-03-08 10:41:00,
2013-03-08 02:52:00,34.0,33.0,-100.00,East,85,1.0,2.0,97,-99.99,,,0.00,0.000000,,2013-03-08 10:52:00,
2013-03-08 03:01:00,34.0,33.0,-100.00,East,85,1.0,2.0,97,-99.99,,,0.00,0.000000,,2013-03-08 11:01:00,
2013-03-08 03:11:00,34.0,33.0,-100.00,East,85,1.0,2.0,97,-99.99,,,0.00,0.000000,,2013-03-08 11:11:00,
2013-03-08 03:41:00,34.0,33.0,-100.00,ENE,68,1.0,2.0,97,-99.99,,,0.00,0.000000,,2013-03-08 11:41:00,
2013-03-08 03:52:00,34.0,33.0,-100.00,ENE,68,1.0,2.0,97,-99.99,,,0.00,0.000000,,2013-03-08 11:52:00,
2013-03-08 04:01:00,34.0,33.0,-100.00,ENE,68,1.0,2.0,97,-99.99,,,0.00,0.000000,,2013-03-08 12:01:00,
2013-03-08 04:11:00,34.0,33.0,-100.00,ENE,68,1.0,2.0,97,-99.99,,,0.00,0.000000,,2013-03-08 12:11:00,
2013-03-08 04:42:00,33.0,32.0,-100.00,NNE,29,0.0,2.0,98,-99.99,,,0.00,0.000000,,2013-03-08 12:42:00,
2013-03-08 04:52:00,33.0,32.0,-100.00,NNE,29,0.0,2.0,98,-99.99,,,0.00,0.000000,,2013-03-08 12:52:00,
2013-03-08 05:01:00,33.0,32.0,-100.00,NNE,29,0.0,2.0,98,-99.99,,,0.00,0.000000,,2013-03-08 13:01:00,
2013-03-08 05:11:00,33.0,32.0,-100.00,NNE,29,0.0,2.0,98,-99.99,,,0.00,0.000000,,2013-03-08 13:11:00,
2013-03-08 05:42:00,32.0,32.0,-100.00,ENE,60,1.0,3.0,98,-99.99,,,0.00,0.000000,,2013-03-08 13:42:00,
2013-03-08 05:52:00,32.0,32.0,-100.00,ENE,60,1.0,3.0,98,-99.99,,,0.00,0.000000,,2013-03-08 13:52:00,
2013-03-08 06:02:00,32.0,32.0,-100.00,ENE,60,1.0,3.0,98,-99.99,,,0.00,0.000000,,2013-03-08 14:02:00,
2013-03-08 06:11:00,32.0,32.0,-100.00,ENE,60,1.0,3.0,98,-99.99,,,0.00,0.000000,,2013-03-08 14:11:00,
2013-03-08 06:42:00,32.0,31.0,-100.00,ENE,75,1.0,3.0,98,-99.99,,,0.00,0.120000,,2013-03-08 14:42:00,
2013-03-08 06:52:00,32.0,31.0,-100.00,ENE,75,1.0,3.0,98,-99.99,,,0.00,0.120000,,2013-03-08 14:52:00,
2013-03-08 07:02:00,32.0,31.0,-100.00,ENE,75,1.0,3.0,98,-99.99,,,0.00,0.120000,,2013-03-08 15:02:00,
2013-03-08 07:11:00,32.0,31.0,-100.00,ENE,75,1.0,3.0,98,-99.99,,,0.00,0.120000,,2013-03-08 15:11:00,
2013-03-08 07:42:00,33.0,32.0,-100.00,NNE,12,1.0,2.0,98,-99.99,,,0.00,57.299999,,2013-03-08 15:42:00,
2013-03-08 07:53:00,33.0,32.0,-100.00,NNE,12,1.0,2.0,98,-99.99,,,0.00,57.299999,,2013-03-08 15:53:00,
2013-03-08 08:01:00,33.0,32.0,-100.00,NNE,12,1.0,2.0,98,-99.99,,,0.00,57.299999,,2013-03-08 16:01:00,
2013-03-08 08:11:00,33.0,32.0,-100.00,NNE,12,1.0,2.0,98,-99.99,,,0.00,57.299999,,2013-03-08 16:11:00,
2013-03-08 08:42:00,38.0,37.0,-100.00,NE,53,1.0,2.0,97,-99.99,,,0.00,246.619995,,2013-03-08 16:42:00,
2013-03-08 08:52:00,38.0,37.0,-100.00,NE,53,1.0,2.0,97,-99.99,,,0.00,246.619995,,2013-03-08 16:52:00,
2013-03-08 09:02:00,38.0,37.0,-100.00,NE,53,1.0,2.0,97,-99.99,,,0.00,246.619995,,2013-03-08 17:02:00,
2013-03-08 09:11:00,38.0,37.0,-100.00,NE,53,1.0,2.0,97,-99.99,,,0.00,246.619995,,2013-03-08 17:11:00,
2013-03-08 09:41:00,42.0,40.0,-100.00,North,351,4.0,6.0,90,-99.99,,,0.00,434.779999,,2013-03-08 17:41:00,
2013-03-08 09:52:00,42.0,40.0,-100.00,North,351,4.0,6.0,90,-99.99,,,0.00,434.779999,,2013-03-08 17:52:00,
2013-03-08 10:01:00,42.0,40.0,-100.00,North,351,4.0,6.0,90,-99.99,,,0.00,434.779999,,2013-03-08 18:01:00,
2013-03-08 10:11:00,42.0,40.0,-100.00,North,351,4.0,6.0,90,-99.99,,,0.00,434.779999,,2013-03-08 18:11:00,
2013-03-08 10:42:00,47.0,40.0,-100.00,North,354,4.0,8.0,78,-99.99,,,0.00,566.340027,,2013-03-08 18:42:00,
2013-03-08 10:52:00,47.0,40.0,-100.00,North,354,4.0,8.0,78,-99.99,,,0.00,566.340027,,2013-03-08 18:52:00,
2013-03-08 11:01:00,47.0,40.0,-100.00,North,354,4.0,8.0,78,-99.99,,,0.00,566.340027,,2013-03-08 19:01:00,
2013-03-08 11:11:00,47.0,40.0,-100.00,North,354,4.0,8.0,78,-99.99,,,0.00,566.340027,,2013-03-08 19:11:00,
2013-03-08 11:41:00,49.0,41.0,-100.00,NNW,348,6.0,10.0,75,-99.99,,,0.00,668.960022,,2013-03-08 19:41:00,
2013-03-08 11:52:00,49.0,41.0,-100.00,NNW,348,6.0,10.0,75,-99.99,,,0.00,668.960022,,2013-03-08 19:52:00,
2013-03-08 12:01:00,49.0,41.0,-100.00,NNW,348,6.0,10.0,75,-99.99,,,0.00,668.960022,,2013-03-08 20:01:00,
2013-03-08 12:11:00,49.0,41.0,-100.00,NNW,348,6.0,10.0,75,-99.99,,,0.00,668.960022,,2013-03-08 20:11:00,
2013-03-08 12:42:00,48.0,41.0,-100.00,NNW,345,9.0,16.0,75,-99.99,,,0.00,717.080017,,2013-03-08 20:42:00,
2013-03-08 12:53:00,48.0,41.0,-100.00,NNW,345,9.0,16.0,75,-99.99,,,0.00,717.080017,,2013-03-08 20:53:00,
2013-03-08 13:01:00,48.0,41.0,-100.00,NNW,345,9.0,16.0,75,-99.99,,,0.00,717.080017,,2013-03-08 21:01:00,
2013-03-08 13:11:00,48.0,41.0,-100.00,NNW,345,9.0,16.0,75,-99.99,,,0.00,717.080017,,2013-03-08 21:11:00,
2013-03-08 13:32:00,49.0,42.0,-100.00,NNW,344,11.0,21.0,76,-99.99,,,0.00,709.989990,,2013-03-08 21:32:00,
2013-03-08 13:42:00,49.0,42.0,-100.00,NNW,344,11.0,21.0,76,-99.99,,,0.00,709.989990,,2013-03-08 21:42:00,
2013-03-08 13:52:00,49.0,42.0,-100.00,NNW,344,11.0,21.0,76,-99.99,,,0.00,709.989990,,2013-03-08 21:52:00,
2013-03-08 14:01:00,49.0,42.0,-100.00,NNW,344,11.0,21.0,76,-99.99,,,0.00,709.989990,,2013-03-08 22:01:00,
2013-03-08 14:11:00,49.0,42.0,-100.00,NNW,344,11.0,21.0,76,-99.99,,,0.00,709.989990,,2013-03-08 22:11:00,
2013-03-08 14:42:00,49.0,43.0,-100.00,NNW,346,11.0,19.0,77,-99.99,,,0.00,644.900024,,2013-03-08 22:42:00,
2013-03-08 14:52:00,49.0,43.0,-100.00,NNW,346,11.0,19.0,77,-99.99,,,0.00,644.900024,,2013-03-08 22:52:00,
2013-03-08 15:01:00,49.0,43.0,-100.00,NNW,346,11.0,19.0,77,-99.99,,,0.00,644.900024,,2013-03-08 23:01:00,
2013-03-08 15:11:00,49.0,43.0,-100.00,NNW,346,11.0,19.0,77,-99.99,,,0.00,644.900024,,2013-03-08 23:11:00,
2013-03-08 15:42:00,50.0,43.0,-100.00,NNW,346,10.0,20.0,77,-99.99,,,0.00,511.950012,,2013-03-08 23:42:00,
2013-03-08 15:52:00,50.0,43.0,-100.00,NNW,346,10.0,20.0,77,-99.99,,,0.00,511.950012,,2013-03-08 23:52:00,
2013-03-08 16:01:00,50.0,43.0,-100.00,NNW,346,10.0,20.0,77,-99.99,,,0.00,511.950012,,2013-03-09 00:01:00,
2013-03-08 16:11:00,50.0,43.0,-100.00,NNW,346,10.0,20.0,77,-99.99,,,0.00,511.950012,,2013-03-09 00:11:00,
2013-03-08 16:42:00,48.0,42.0,-100.00,NNW,347,11.0,19.0,79,-99.99,,,0.00,225.470001,,2013-03-09 00:42:00,
2013-03-08 16:52:00,48.0,42.0,-100.00,NNW,347,11.0,19.0,79,-99.99,,,0.00,225.470001,,2013-03-09 00:52:00,
2013-03-08 17:01:00,48.0,42.0,-100.00,NNW,347,11.0,19.0,79,-99.99,,,0.00,225.470001,,2013-03-09 01:01:00,
2013-03-08 17:12:00,48.0,42.0,-100.00,NNW,347,11.0,19.0,79,-99.99,,,0.00,225.470001,,2013-03-09 01:12:00,
2013-03-08 19:41:00,46.0,41.0,-100.00,NNE,15,4.0,11.0,83,-99.99,,,0.00,0.000000,,2013-03-09 03:41:00,
2013-03-08 19:52:00,46.0,41.0,-100.00,NNE,15,4.0,11.0,83,-99.99,,,0.00,0.000000,,2013-03-09 03:52:00,
2013-03-08 20:01:00,46.0,41.0,-100.00,NNE,15,4.0,11.0,83,-99.99,,,0.00,0.000000,,2013-03-09 04:01:00,
2013-03-08 20:11:00,46.0,41.0,-100.00,NNE,15,4.0,11.0,83,-99.99,,,0.00,0.000000,,2013-03-09 04:11:00,
2013-03-08 20:31:00,46.0,40.0,-100.00,NNE,22,5.0,14.0,80,-99.99,,,0.00,0.000000,,2013-03-09 04:31:00,
2013-03-08 20:41:00,46.0,40.0,-100.00,NNE,22,5.0,14.0,80,-99.99,,,0.00,0.000000,,2013-03-09 04:41:00,
2013-03-08 20:52:00,46.0,40.0,-100.00,NNE,22,5.0,14.0,80,-99.99,,,0.00,0.000000,,2013-03-09 04:52:00,
2013-03-08 21:01:00,46.0,40.0,-100.00,NNE,22,5.0,14.0,80,-99.99,,,0.00,0.000000,,2013-03-09 05:01:00,
2013-03-08 21:11:00,46.0,40.0,-100.00,NNE,22,5.0,14.0,80,-99.99,,,0.00,0.000000,,2013-03-09 05:11:00,
2013-03-08 21:31:00,46.0,41.0,-100.00,NE,40,3.0,7.0,82,-99.99,,,0.00,0.000000,,2013-03-09 05:31:00,
2013-03-08 21:42:00,46.0,41.0,-100.00,NE,40,3.0,7.0,82,-99.99,,,0.00,0.000000,,2013-03-09 05:42:00,
2013-03-08 21:53:00,46.0,41.0,-100.00,NE,40,3.0,7.0,82,-99.99,,,0.00,0.000000,,2013-03-09 05:53:00,
2013-03-08 22:01:00,46.0,41.0,-100.00,NE,40,3.0,7.0,82,-99.99,,,0.00,0.000000,,2013-03-09 06:01:00,
2013-03-08 22:11:00,46.0,41.0,-100.00,NE,40,3.0,7.0,82,-99.99,,,0.00,0.000000,,2013-03-09 06:11:00,
2013-03-08 22:31:00,45.0,41.0,-100.00,NE,47,3.0,5.0,84,-99.99,,,0.00,0.000000,,2013-03-09 06:31:00,
2013-03-08 22:42:00,45.0,41.0,-100.00,NE,47,3.0,5.0,84,-99.99,,,0.00,0.000000,,2013-03-09 06:42:00,
2013-03-08 22:52:00,45.0,41.0,-100.00,NE,47,3.0,5.0,84,-99.99,,,0.00,0.000000,,2013-03-09 06:52:00,
2013-03-08 23:01:00,45.0,41.0,-100.00,NE,47,3.0,5.0,84,-99.99,,,0.00,0.000000,,2013-03-09 07:01:00,
2013-03-08 23:11:00,45.0,41.0,-100.00,NE,47,3.0,5.0,84,-99.99,,,0.00,0.000000,,2013-03-09 07:11:00,
2013-03-08 23:31:00,45.0,40.0,-100.00,NNE,20,2.0,5.0,84,-99.99,,,0.00,0.000000,,2013-03-09 07:31:00,
2013-03-08 23:41:00,45.0,40.0,-100.00,NNE,20,2.0,5.0,84,-99.99,,,0.00,0.000000,,2013-03-09 07:41:00,
2013-03-08 23:52:00,45.0,40.0,-100.00,NNE,20,2.0,5.0,84,-99.99,,,0.00,0.000000,,2013-03-09 07:52:00,